Oromocto, Canada
Current Conditions -  °F | °C
As of 4:00 AM on Friday 24 Oct 2014 (Local Time) from CYCX Reporting Station
Moderate Rain Moderate Rain  
Wind Chill: 43°   Ceiling: 700
Heat Index: 48°   Visibility: 1.5mi
Dew Point: 48°   Wind: 14mph
Humidity: 100%   Direction: 50°NE
Pressure: 29.73"   Gusts: 24mph
Location:  45.84°N, 66.48°W
Report Text: CYCX 240700Z 05012G21KT 1 1/2SM RA BR OVC007 09/09 A2973 RMKSF8 DA-198FT SLP069
Loading
Personal Weather Stations






























Interactive Weather Map
Tropical Storm Tracking
New forecast layout! Learn more

10-Day Weather Forecast

Advertisements
Track Severe Weather on mobile